Time;durP1;ratioP1;P1;durP2;ratioP2;P2;SDS_P1;SDS_P2;PMS_P1;PMS_P2;Temp;Humidity;BMP_temperature;BMP_pressure;BME280_temperature;BME280_humidity;BME280_pressure;Samples;Min_cycle;Max_cycle;Signal;HPM_P1;HPM_P2
2023/06/29 00:01:32;;;;;;;22.13;8.50;;;;;;;17.59;59.04;101253.13;4993495;28;20424;-77
2023/06/29 00:03:58;;;;;;;16.10;7.55;;;;;;;17.58;59.17;101249.63;4994137;28;20473;-77
2023/06/29 00:06:24;;;;;;;19.30;7.80;;;;;;;17.53;59.21;101249.41;4976894;28;20386;-77
2023/06/29 00:08:50;;;;;;;16.30;7.32;;;;;;;17.46;59.66;101250.41;4993967;28;20386;-77
2023/06/29 00:11:15;;;;;;;20.77;7.50;;;;;;;17.34;59.92;101248.34;4994379;28;20382;-77
2023/06/29 00:13:41;;;;;;;17.47;7.53;;;;;;;17.41;59.68;101247.50;4993384;28;20419;-77
2023/06/29 00:16:06;;;;;;;16.88;7.50;;;;;;;17.46;59.72;101256.59;4994459;28;20750;-77
2023/06/29 00:18:33;;;;;;;16.47;7.43;;;;;;;17.37;59.90;101250.59;4980129;28;20744;-77
2023/06/29 00:21:00;;;;;;;17.67;7.45;;;;;;;17.25;60.14;101246.00;4971539;28;20480;-77
2023/06/29 00:23:26;;;;;;;16.88;7.90;;;;;;;17.24;60.21;101242.53;4962972;28;20815;-77
2023/06/29 00:25:53;;;;;;;17.13;7.70;;;;;;;17.25;60.33;101249.53;4973866;28;20399;-76
2023/06/29 00:28:18;;;;;;;16.43;7.33;;;;;;;17.15;60.66;101246.41;4974149;28;20433;-76
2023/06/29 00:30:44;;;;;;;18.40;7.53;;;;;;;17.17;60.76;101247.84;4972882;28;20448;-76
2023/06/29 00:33:09;;;;;;;18.63;7.53;;;;;;;17.22;60.54;101243.75;4971531;28;20421;-76
2023/06/29 00:35:35;;;;;;;17.38;7.90;;;;;;;17.20;60.34;101236.75;4971030;28;20909;-76
2023/06/29 00:38:00;;;;;;;16.83;7.67;;;;;;;17.22;60.29;101236.53;4969821;28;20787;-76
2023/06/29 00:40:26;;;;;;;15.27;7.15;;;;;;;17.23;60.33;101229.31;4982407;28;20389;-76
2023/06/29 00:42:54;;;;;;;19.87;7.50;;;;;;;17.13;60.30;101227.84;4988490;28;20388;-77
2023/06/29 00:45:19;;;;;;;18.25;7.75;;;;;;;17.18;60.10;101235.28;4988542;28;20714;-76
2023/06/29 00:47:46;;;;;;;18.60;7.47;;;;;;;17.15;60.35;101223.13;4971473;28;20396;-76
2023/06/29 00:50:11;;;;;;;17.95;7.40;;;;;;;17.24;60.09;101236.34;4988849;28;20389;-77
2023/06/29 00:52:37;;;;;;;21.10;7.72;;;;;;;17.19;60.15;101231.56;4991097;28;20414;-77
2023/06/29 00:55:03;;;;;;;17.37;7.30;;;;;;;17.29;60.00;101229.34;4991353;28;20442;-77
2023/06/29 00:57:32;;;;;;;17.33;7.10;;;;;;;17.22;60.00;101230.38;4991394;28;20385;-77
2023/06/29 01:00:00;;;;;;;21.33;7.65;;;;;;;17.27;59.83;101227.88;4991589;28;20472;-77
2023/06/29 01:02:29;;;;;;;20.48;7.60;;;;;;;17.24;59.84;101234.47;4991137;28;20440;-77
2023/06/29 01:04:56;;;;;;;16.27;6.82;;;;;;;17.14;60.05;101232.19;4990888;28;20378;-77
2023/06/29 01:07:36;;;;;;;18.63;6.95;;;;;;;17.18;60.06;101232.63;4991501;28;20408;-77
2023/06/29 01:10:03;;;;;;;15.37;7.23;;;;;;;17.12;60.30;101242.25;4991467;28;20799;-77
2023/06/29 01:12:29;;;;;;;17.50;7.20;;;;;;;17.06;60.43;101229.69;4991160;28;20921;-77
2023/06/29 01:14:56;;;;;;;16.80;7.37;;;;;;;17.00;60.56;101225.94;4990097;28;20496;-76
2023/06/29 01:17:25;;;;;;;21.60;7.30;;;;;;;17.15;60.21;101233.00;4990052;28;20397;-76
2023/06/29 01:19:52;;;;;;;18.25;7.45;;;;;;;17.18;59.99;101228.06;4990596;28;21026;-76
2023/06/29 01:22:43;;;;;;;20.02;7.22;;;;;;;17.23;59.72;101224.78;4990794;28;20882;-76
2023/06/29 01:25:08;;;;;;;20.77;7.28;;;;;;;17.21;59.69;101216.13;4977026;28;20807;-76
2023/06/29 01:27:34;;;;;;;20.67;7.67;;;;;;;17.26;59.48;101226.25;4990841;28;20851;-76
2023/06/29 01:30:01;;;;;;;17.42;6.90;;;;;;;17.27;59.45;101231.41;4973409;28;20770;-76
2023/06/29 01:32:35;;;;;;;17.60;7.50;;;;;;;17.31;59.57;101218.44;4990505;28;20425;-76
2023/06/29 01:35:02;;;;;;;14.77;6.67;;;;;;;17.42;59.39;101222.38;4989895;28;20421;-77
2023/06/29 01:37:36;;;;;;;17.25;7.18;;;;;;;17.45;59.32;101213.91;4989456;28;20464;-76
2023/06/29 01:40:06;;;;;;;20.38;7.53;;;;;;;17.35;59.48;101211.63;4989228;28;20386;-76
2023/06/29 01:42:32;;;;;;;17.17;7.03;;;;;;;17.21;59.80;101210.75;5004255;28;20850;-75
2023/06/29 01:45:04;;;;;;;20.52;7.50;;;;;;;17.12;59.84;101203.94;4973154;28;20393;-75
2023/06/29 01:47:31;;;;;;;18.40;7.18;;;;;;;17.07;60.00;101209.91;4989205;28;20386;-75
2023/06/29 01:49:57;;;;;;;18.70;7.30;;;;;;;17.10;59.75;101206.00;4989393;28;20397;-76
2023/06/29 01:52:22;;;;;;;18.43;7.20;;;;;;;17.08;59.96;101211.56;4989664;28;20409;-75
2023/06/29 01:54:48;;;;;;;21.73;7.67;;;;;;;16.97;59.96;101204.09;4989485;28;20406;-76
2023/06/29 01:57:14;;;;;;;20.27;7.07;;;;;;;16.95;60.13;101198.13;4989743;28;20394;-76
2023/06/29 01:59:40;;;;;;;19.50;7.20;;;;;;;16.91;60.08;101192.34;4972264;28;20476;-76
2023/06/29 02:02:06;;;;;;;15.70;6.37;;;;;;;16.89;60.31;101213.13;4989896;28;20417;-76
2023/06/29 02:04:32;;;;;;;19.00;6.90;;;;;;;16.78;60.66;101206.47;4989979;28;20405;-76
2023/06/29 02:06:58;;;;;;;18.15;7.22;;;;;;;16.79;60.72;101202.75;4990181;28;20793;-76
2023/06/29 02:09:23;;;;;;;16.47;7.33;;;;;;;16.75;60.87;101203.38;4989472;28;20937;-76
2023/06/29 02:11:49;;;;;;;16.70;6.63;;;;;;;16.79;60.58;101208.09;4989324;28;20401;-76
2023/06/29 02:14:17;;;;;;;16.50;7.30;;;;;;;16.77;60.62;101199.44;4971977;28;20409;-76
2023/06/29 02:16:43;;;;;;;22.55;7.00;;;;;;;16.76;60.60;101205.00;4988811;28;20402;-76
2023/06/29 02:19:09;;;;;;;15.55;6.57;;;;;;;16.65;60.88;101194.88;4988485;28;20439;-77
2023/06/29 02:21:34;;;;;;;17.43;6.50;;;;;;;16.78;61.08;101205.63;4989240;28;20386;-76
2023/06/29 02:24:00;;;;;;;20.17;6.90;;;;;;;16.82;60.61;101196.19;4990607;28;20528;-75
2023/06/29 02:26:26;;;;;;;17.77;6.10;;;;;;;16.77;60.50;101194.09;4989764;28;20730;-76
2023/06/29 02:28:52;;;;;;;15.90;6.37;;;;;;;16.75;60.54;101193.47;4990638;28;20378;-76
2023/06/29 02:31:17;;;;;;;20.27;7.13;;;;;;;16.77;60.50;101204.81;4993133;28;20398;-76
2023/06/29 02:33:44;;;;;;;17.52;6.82;;;;;;;16.61;60.98;101192.56;4993391;28;20568;-76
2023/06/29 02:36:10;;;;;;;17.40;6.90;;;;;;;16.61;60.93;101205.97;4993160;28;20660;-76
2023/06/29 02:38:35;;;;;;;16.40;6.83;;;;;;;16.57;61.26;101209.25;4992991;28;20397;-76
2023/06/29 02:41:01;;;;;;;15.98;6.35;;;;;;;16.54;61.22;101209.63;4992612;28;20393;-76
2023/06/29 02:43:27;;;;;;;15.73;6.47;;;;;;;16.48;61.38;101211.25;4992210;28;20390;-77
2023/06/29 02:45:52;;;;;;;16.95;6.50;;;;;;;16.57;61.23;101209.25;4991394;28;20404;-77
2023/06/29 02:48:18;;;;;;;17.23;6.50;;;;;;;16.50;61.51;101209.19;4992776;28;20390;-77
2023/06/29 02:50:43;;;;;;;16.87;6.53;;;;;;;16.51;61.63;101213.53;4992899;28;20393;-76
2023/06/29 02:53:11;;;;;;;14.98;6.20;;;;;;;16.44;61.90;101216.16;4992824;28;20386;-76
2023/06/29 02:55:37;;;;;;;17.77;5.72;;;;;;;16.37;62.12;101214.47;4993061;28;20456;-77
2023/06/29 02:58:02;;;;;;;18.60;5.93;;;;;;;16.46;62.02;101223.16;4993813;28;20468;-77
2023/06/29 03:00:28;;;;;;;15.37;6.07;;;;;;;16.41;62.11;101216.56;4976027;28;20388;-77
2023/06/29 03:02:53;;;;;;;13.60;5.90;;;;;;;16.46;61.88;101223.16;4993474;28;20483;-77
2023/06/29 03:05:19;;;;;;;11.85;5.20;;;;;;;16.49;61.73;101228.94;4993671;28;20479;-77
2023/06/29 03:07:44;;;;;;;14.80;5.97;;;;;;;16.54;61.74;101223.81;4993454;28;20457;-77
2023/06/29 03:10:10;;;;;;;14.57;5.93;;;;;;;16.66;61.36;101229.47;4993718;28;20401;-77
2023/06/29 03:12:35;;;;;;;16.17;5.97;;;;;;;16.70;61.01;101208.47;4993715;28;20457;-77
2023/06/29 03:15:01;;;;;;;17.02;6.10;;;;;;;16.68;61.09;101222.06;4992964;28;20463;-76
2023/06/29 03:17:27;;;;;;;14.40;5.70;;;;;;;16.68;61.11;101224.75;4992680;28;20394;-77
2023/06/29 03:19:53;;;;;;;15.70;5.82;;;;;;;16.70;61.09;101219.19;4975354;28;20418;-76
2023/06/29 03:22:18;;;;;;;22.02;6.07;;;;;;;16.84;60.59;101228.97;4995284;28;20485;-77
2023/06/29 03:24:44;;;;;;;15.93;5.60;;;;;;;16.92;60.28;101222.63;4984586;28;20401;-77
2023/06/29 03:27:11;;;;;;;14.13;5.57;;;;;;;17.05;59.99;101220.00;5001070;28;20382;-76
2023/06/29 03:29:36;;;;;;;13.35;5.35;;;;;;;17.19;59.73;101232.38;5002216;28;20853;-76
2023/06/29 03:32:02;;;;;;;15.83;5.40;;;;;;;17.25;59.57;101229.94;5002225;28;20397;-76
2023/06/29 03:34:27;;;;;;;15.57;5.25;;;;;;;17.32;59.23;101230.78;5000715;28;20818;-76
2023/06/29 03:36:53;;;;;;;11.27;4.73;;;;;;;17.47;58.79;101226.09;5000801;28;20540;-75
2023/06/29 03:39:19;;;;;;;13.50;5.28;;;;;;;17.66;58.64;101232.50;4983960;28;20400;-75
2023/06/29 03:41:44;;;;;;;12.93;5.38;;;;;;;17.75;58.29;101238.50;5000896;28;20400;-76
2023/06/29 03:44:10;;;;;;;14.43;5.80;;;;;;;17.68;58.54;101251.91;4994884;28;20491;-76
2023/06/29 03:46:36;;;;;;;12.83;5.20;;;;;;;17.60;58.74;101248.59;5002058;28;20400;-76
2023/06/29 03:49:01;;;;;;;19.30;5.95;;;;;;;17.57;58.86;101242.63;4997286;28;20401;-76
2023/06/29 03:51:27;;;;;;;19.00;6.13;;;;;;;17.84;58.26;101241.81;4996443;28;20401;-76
2023/06/29 03:53:52;;;;;;;14.02;5.45;;;;;;;17.96;58.00;101257.13;4995916;28;20407;-76
2023/06/29 03:56:18;;;;;;;13.07;5.40;;;;;;;18.10;57.66;101255.28;4994598;28;20405;-76
2023/06/29 03:58:43;;;;;;;19.43;5.50;;;;;;;18.24;57.16;101253.41;4985070;28;20871;-76
2023/06/29 04:01:09;;;;;;;13.87;5.50;;;;;;;18.24;57.05;101255.25;4972017;28;20929;-76
2023/06/29 04:03:34;;;;;;;15.00;5.80;;;;;;;18.31;56.94;101253.38;4966969;28;20872;-76
2023/06/29 04:06:00;;;;;;;11.82;5.72;;;;;;;18.26;56.91;101253.22;4981633;28;20433;-76
2023/06/29 04:08:25;;;;;;;15.43;6.13;;;;;;;18.39;57.06;101255.06;4967826;28;20614;-76
2023/06/29 04:10:50;;;;;;;16.35;5.85;;;;;;;18.37;56.76;101246.38;4979061;28;20402;-76
2023/06/29 04:13:16;;;;;;;24.03;6.37;;;;;;;18.46;56.86;101254.00;4986050;28;20397;-77
2023/06/29 04:15:41;;;;;;;13.83;5.40;;;;;;;18.54;56.58;101255.63;4986900;28;20460;-76
2023/06/29 04:18:07;;;;;;;13.30;5.90;;;;;;;18.57;56.53;101257.09;4986775;28;20480;-76
2023/06/29 04:20:32;;;;;;;13.33;6.00;;;;;;;18.62;56.43;101255.44;4987850;28;21055;-76
2023/06/29 04:22:58;;;;;;;15.73;6.90;;;;;;;18.85;56.21;101263.03;4988875;28;20424;-76
2023/06/29 04:25:23;;;;;;;14.13;6.30;;;;;;;18.99;55.92;101247.69;4989496;28;20489;-76
2023/06/29 04:27:49;;;;;;;16.57;5.87;;;;;;;19.00;55.82;101257.41;4972462;28;20874;-76
2023/06/29 04:30:17;;;;;;;14.57;6.03;;;;;;;18.94;56.08;101263.59;4986576;28;20401;-76
2023/06/29 04:32:44;;;;;;;14.77;5.72;;;;;;;19.08;55.97;101259.03;4996324;28;20406;-75
2023/06/29 04:35:09;;;;;;;12.27;5.47;;;;;;;19.13;55.71;101255.72;4997517;28;20413;-75
2023/06/29 04:37:41;;;;;;;11.05;4.97;;;;;;;19.25;55.26;101248.63;5000458;28;20889;-76
2023/06/29 04:40:14;;;;;;;13.43;5.18;;;;;;;19.50;54.88;101256.75;5004720;28;20866;-76
2023/06/29 04:42:47;;;;;;;15.02;5.50;;;;;;;19.66;54.69;101241.94;4972698;28;20401;-77
2023/06/29 04:45:18;;;;;;;17.50;5.63;;;;;;;19.66;54.10;101255.41;4989434;28;21153;-77
2023/06/29 04:47:46;;;;;;;20.55;6.05;;;;;;;19.76;53.84;101245.03;4988820;28;20397;-76
2023/06/29 04:50:12;;;;;;;20.05;5.80;;;;;;;19.83;53.31;101247.66;4991327;28;20390;-76
2023/06/29 04:52:37;;;;;;;15.30;5.45;;;;;;;19.97;53.29;101251.06;4990643;28;20400;-76
2023/06/29 04:55:04;;;;;;;15.67;5.30;;;;;;;19.96;52.99;101241.34;4990106;28;20409;-76
2023/06/29 04:57:30;;;;;;;22.77;6.57;;;;;;;20.16;53.51;101249.25;4990793;28;20407;-77
2023/06/29 04:59:56;;;;;;;23.73;6.55;;;;;;;20.47;52.72;101258.28;4989538;28;20397;-77
2023/06/29 05:02:21;;;;;;;18.60;5.47;;;;;;;20.62;52.15;101258.81;4991031;28;20467;-77
2023/06/29 05:04:48;;;;;;;11.40;5.30;;;;;;;20.68;52.23;101257.06;4991530;28;20382;-77
2023/06/29 05:07:13;;;;;;;9.88;4.53;;;;;;;20.83;51.73;101262.09;4992248;28;20382;-76
2023/06/29 05:09:39;;;;;;;8.87;4.57;;;;;;;20.92;51.94;101250.78;4991565;28;20936;-76
2023/06/29 05:12:06;;;;;;;11.27;5.38;;;;;;;21.20;51.35;101260.19;4991063;28;20413;-77
2023/06/29 05:14:31;;;;;;;5.80;3.72;;;;;;;20.91;50.56;101253.72;4991536;28;20410;-77
2023/06/29 05:16:57;;;;;;;9.07;4.13;;;;;;;20.98;50.40;101249.06;4977771;28;20393;-76
2023/06/29 05:19:22;;;;;;;7.82;3.92;;;;;;;20.85;50.78;101250.06;4991674;28;20467;-77
2023/06/29 05:21:48;;;;;;;8.03;3.80;;;;;;;20.94;50.25;101254.09;4991512;28;20398;-77
2023/06/29 05:24:13;;;;;;;10.00;4.37;;;;;;;21.02;50.03;101262.91;4990075;28;20389;-76
2023/06/29 05:26:40;;;;;;;8.55;3.83;;;;;;;21.08;49.79;101264.69;4991287;28;20396;-77
2023/06/29 05:29:06;;;;;;;7.57;3.50;;;;;;;21.11;49.68;101258.84;4991396;28;20867;-76
2023/06/29 05:31:32;;;;;;;9.02;3.35;;;;;;;20.95;49.48;101255.72;4991233;28;20408;-77
2023/06/29 05:33:58;;;;;;;6.47;3.43;;;;;;;21.07;49.62;101250.41;4991718;28;20499;-76
2023/06/29 05:36:23;;;;;;;5.33;2.83;;;;;;;21.26;49.07;101263.84;4996152;28;20409;-77
2023/06/29 05:38:48;;;;;;;9.23;3.60;;;;;;;21.31;49.04;101270.19;4998269;28;20882;-78
2023/06/29 05:41:14;;;;;;;7.50;4.27;;;;;;;21.61;49.06;101268.56;4990220;28;20460;-77
2023/06/29 05:43:39;;;;;;;5.67;4.03;;;;;;;21.89;48.70;101255.25;4994791;28;20850;-78
2023/06/29 05:46:05;;;;;;;6.55;4.80;;;;;;;22.33;48.31;101261.22;4995964;28;20811;-77
2023/06/29 05:48:30;;;;;;;8.60;3.70;;;;;;;22.48;47.84;101260.72;4994705;28;20400;-76
2023/06/29 05:50:56;;;;;;;6.53;3.40;;;;;;;22.44;47.39;101264.97;4992599;28;20401;-76
2023/06/29 05:53:21;;;;;;;30.48;13.70;;;;;;;22.56;47.68;101259.53;4992037;28;20897;-76
2023/06/29 05:55:47;;;;;;;13.70;3.77;;;;;;;22.72;46.65;101258.00;5003887;28;20458;-77
2023/06/29 05:58:12;;;;;;;8.93;2.80;;;;;;;22.44;45.83;101256.06;5005310;28;20385;-77
2023/06/29 06:00:38;;;;;;;6.78;3.25;;;;;;;22.26;46.52;101255.09;4994488;28;20403;-77
2023/06/29 06:03:03;;;;;;;8.53;3.70;;;;;;;22.40;46.80;101265.66;4993790;28;20421;-77
2023/06/29 06:05:29;;;;;;;5.90;3.10;;;;;;;22.76;45.88;101264.59;5003523;28;20414;-77
2023/06/29 06:07:55;;;;;;;3.47;2.60;;;;;;;22.84;45.69;101269.63;4978366;28;20808;-77
2023/06/29 06:10:20;;;;;;;3.92;2.47;;;;;;;22.75;45.33;101275.63;4995613;28;20882;-76
2023/06/29 06:12:46;;;;;;;5.07;2.80;;;;;;;22.40;45.54;101265.66;4994255;28;20432;-77
2023/06/29 06:15:14;;;;;;;7.03;2.63;;;;;;;22.38;45.52;101257.78;4994617;28;20420;-77
2023/06/29 06:17:40;;;;;;;6.75;2.20;;;;;;;22.53;45.24;101252.75;4994790;28;20385;-76
2023/06/29 06:20:06;;;;;;;6.55;2.60;;;;;;;22.50;45.55;101263.19;4995471;28;20418;-77
2023/06/29 06:22:33;;;;;;;9.32;3.00;;;;;;;22.76;45.56;101261.88;4993584;28;20465;-76
2023/06/29 06:24:58;;;;;;;4.95;2.60;;;;;;;22.78;45.46;101262.47;4998069;28;20902;-77
2023/06/29 06:27:24;;;;;;;7.00;2.90;;;;;;;22.99;45.26;101254.75;4995360;28;20477;-77
2023/06/29 06:29:50;;;;;;;9.70;3.22;;;;;;;22.68;45.59;101268.47;4996119;28;20485;-77
2023/06/29 06:32:15;;;;;;;8.53;2.60;;;;;;;22.86;44.89;101272.91;4977982;28;20401;-76
2023/06/29 06:34:41;;;;;;;4.83;2.17;;;;;;;22.87;44.80;101271.84;4994390;28;20425;-78
2023/06/29 06:37:07;;;;;;;2.90;2.30;;;;;;;22.60;45.00;101271.53;4994343;28;20941;-78
2023/06/29 06:39:33;;;;;;;9.27;3.28;;;;;;;22.71;45.25;101264.47;4994639;28;21136;-78
2023/06/29 06:41:59;;;;;;;8.37;2.80;;;;;;;22.79;45.24;101265.97;4994016;28;20398;-77
2023/06/29 06:44:25;;;;;;;4.45;2.10;;;;;;;22.81;45.02;101255.75;4990392;28;20388;-77
2023/06/29 06:46:51;;;;;;;6.23;2.67;;;;;;;22.95;45.18;101253.63;4992750;28;20412;-79
2023/06/29 06:49:16;;;;;;;6.82;2.75;;;;;;;23.08;44.53;101246.09;4988381;28;20862;-79
2023/06/29 06:51:42;;;;;;;5.23;2.47;;;;;;;23.06;44.30;101250.06;4995259;28;20393;-77
2023/06/29 06:54:07;;;;;;;7.17;2.60;;;;;;;22.91;44.69;101255.97;4995310;28;20902;-78
2023/06/29 06:56:33;;;;;;;7.70;2.83;;;;;;;23.18;44.50;101248.16;4978326;28;20412;-78
2023/06/29 06:58:58;;;;;;;9.53;3.10;;;;;;;23.23;44.33;101242.03;4992844;28;20417;-76
2023/06/29 07:01:26;;;;;;;5.97;2.40;;;;;;;23.18;44.52;101252.75;4992870;28;20418;-76
2023/06/29 07:03:52;;;;;;;5.97;2.47;;;;;;;23.47;44.18;101256.25;4993276;28;20409;-79
2023/06/29 07:06:20;;;;;;;4.33;2.50;;;;;;;23.42;44.20;101250.75;4995619;28;20730;-77
2023/06/29 07:08:46;;;;;;;8.10;2.70;;;;;;;23.93;43.17;101250.84;4994640;28;20744;-80
2023/06/29 07:11:11;;;;;;;8.27;2.50;;;;;;;23.69;43.27;101242.03;4995717;28;20392;-77
2023/06/29 07:13:37;;;;;;;8.13;2.70;;;;;;;23.92;43.25;101255.44;4994622;28;20429;-77
2023/06/29 07:16:05;;;;;;;7.78;2.65;;;;;;;23.89;44.09;101257.81;5009210;28;20478;-77
2023/06/29 07:18:33;;;;;;;6.78;2.65;;;;;;;23.78;43.60;101237.84;4994360;28;20373;-77
2023/06/29 07:20:59;;;;;;;12.32;3.17;;;;;;;24.09;42.90;101251.91;4993264;28;20373;-77
2023/06/29 07:23:24;;;;;;;7.63;2.77;;;;;;;24.34;43.76;101251.47;4994158;28;20400;-78
2023/06/29 07:25:50;;;;;;;4.00;2.10;;;;;;;24.53;43.29;101243.91;4994525;28;20385;-79
2023/06/29 07:28:15;;;;;;;7.38;2.70;;;;;;;24.53;42.87;101247.44;4995163;28;20392;-78
2023/06/29 07:30:41;;;;;;;7.50;2.63;;;;;;;24.58;42.49;101238.56;4995228;28;20424;-77
2023/06/29 07:33:07;;;;;;;6.60;2.50;;;;;;;24.67;41.92;101239.75;4995029;28;20378;-78
2023/06/29 07:35:32;;;;;;;4.03;2.30;;;;;;;25.04;41.82;101238.28;4988293;28;20444;-77
2023/06/29 07:37:58;;;;;;;4.93;2.17;;;;;;;25.17;41.60;101227.88;4978085;28;20439;-77
2023/06/29 07:40:24;;;;;;;10.30;2.83;;;;;;;25.06;40.88;101238.84;4977342;28;20409;-77
2023/06/29 07:42:49;;;;;;;6.73;2.67;;;;;;;24.85;41.46;101224.22;4992486;28;20389;-77
2023/06/29 07:45:15;;;;;;;6.50;2.33;;;;;;;24.85;40.94;101235.06;4991112;28;20720;-77
2023/06/29 07:47:41;;;;;;;8.93;2.90;;;;;;;25.15;41.64;101226.47;4973670;28;20398;-77
2023/06/29 07:50:07;;;;;;;8.27;2.80;;;;;;;25.12;40.63;101229.69;4989878;28;20666;-78
2023/06/29 07:52:32;;;;;;;7.55;2.47;;;;;;;25.14;41.63;101225.66;4993132;28;20428;-77
2023/06/29 07:54:58;;;;;;;3.67;2.03;;;;;;;24.97;39.34;101220.34;4993659;28;20402;-76
2023/06/29 07:57:23;;;;;;;8.13;2.33;;;;;;;24.77;39.98;101220.91;4993917;28;20417;-75
2023/06/29 07:59:49;;;;;;;7.70;2.40;;;;;;;25.01;39.71;101217.91;4993638;28;20742;-76
2023/06/29 08:02:14;;;;;;;11.95;2.60;;;;;;;25.04;38.88;101216.59;4993390;28;20471;-77
2023/06/29 08:04:40;;;;;;;6.60;2.23;;;;;;;24.96;38.87;101226.81;4992627;28;20378;-76
2023/06/29 08:07:06;;;;;;;4.23;2.00;;;;;;;25.16;39.89;101211.84;4993170;28;20381;-76
2023/06/29 08:09:31;;;;;;;3.83;1.80;;;;;;;25.43;38.39;101217.28;4993219;28;20446;-77
2023/06/29 08:11:58;;;;;;;7.40;1.73;;;;;;;24.93;38.30;101213.75;4993396;28;20390;-76
2023/06/29 08:14:23;;;;;;;3.42;1.63;;;;;;;24.49;39.81;101208.34;4992964;28;20890;-76
2023/06/29 08:16:49;;;;;;;6.03;1.90;;;;;;;24.70;39.78;101214.84;4992716;28;20394;-77
2023/06/29 08:19:15;;;;;;;4.67;2.03;;;;;;;25.10;39.06;101204.72;4993418;28;20921;-78
2023/06/29 08:21:41;;;;;;;8.68;2.55;;;;;;;25.24;39.36;101216.00;4976240;28;20386;-76
2023/06/29 08:24:08;;;;;;;10.25;2.53;;;;;;;25.00;39.41;101211.66;4992766;28;20384;-76
2023/06/29 08:26:34;;;;;;;9.95;2.47;;;;;;;25.16;39.16;101209.13;4992633;28;20473;-76
2023/06/29 08:29:00;;;;;;;4.88;2.30;;;;;;;25.51;39.14;101207.84;4993617;28;20382;-76
2023/06/29 08:31:25;;;;;;;7.47;2.67;;;;;;;25.87;38.28;101202.72;4993350;28;20378;-77
2023/06/29 08:33:51;;;;;;;6.73;2.10;;;;;;;25.82;37.39;101208.09;4992130;28;20410;-77
2023/06/29 08:36:17;;;;;;;5.40;2.00;;;;;;;25.76;37.52;101204.53;4992398;28;20452;-76
2023/06/29 08:38:48;;;;;;;5.30;1.90;;;;;;;25.31;37.57;101198.44;4992322;28;20377;-77
2023/06/29 08:41:14;;;;;;;5.43;2.22;;;;;;;25.87;38.26;101189.13;4992497;28;20417;-76
2023/06/29 08:43:40;;;;;;;6.53;2.30;;;;;;;25.82;38.30;101200.81;4975233;28;20824;-76
2023/06/29 08:46:06;;;;;;;5.80;2.17;;;;;;;25.65;38.26;101189.25;4992674;28;20386;-76
2023/06/29 08:48:34;;;;;;;9.30;2.60;;;;;;;25.72;37.28;101193.38;4992120;28;20417;-75
2023/06/29 08:51:06;;;;;;;7.85;2.20;;;;;;;25.48;38.14;101192.91;4992164;28;20937;-76
2023/06/29 08:53:32;;;;;;;7.18;2.20;;;;;;;25.59;37.13;101187.56;4992221;28;20405;-77
2023/06/29 08:55:59;;;;;;;7.38;2.10;;;;;;;25.35;36.87;101194.16;4992587;28;20432;-76
2023/06/29 08:58:25;;;;;;;5.78;1.63;;;;;;;25.02;35.95;101191.63;4992383;28;20385;-76
2023/06/29 09:00:54;;;;;;;6.90;1.90;;;;;;;25.56;35.65;101173.44;4993843;28;20401;-75
2023/06/29 09:03:22;;;;;;;7.13;2.03;;;;;;;25.86;34.73;101176.66;4991892;28;20393;-76
2023/06/29 09:05:50;;;;;;;7.15;1.88;;;;;;;25.77;36.79;101179.03;4991197;28;20409;-75
2023/06/29 09:08:18;;;;;;;4.77;1.87;;;;;;;25.65;35.76;101164.81;4992747;28;20472;-76
2023/06/29 09:10:46;;;;;;;3.88;2.00;;;;;;;25.87;36.18;101176.38;4975663;28;20381;-76
2023/06/29 09:13:13;;;;;;;5.63;1.73;;;;;;;25.70;33.00;101179.25;4987786;28;20422;-76
2023/06/29 09:15:39;;;;;;;6.13;1.58;;;;;;;25.48;32.63;101182.06;4978174;28;20458;-78
2023/06/29 09:18:05;;;;;;;7.73;1.80;;;;;;;25.44;32.80;101177.41;4982630;28;20406;-76
2023/06/29 09:20:35;;;;;;;7.00;2.00;;;;;;;25.66;32.48;101178.13;4974840;28;20467;-76
2023/06/29 09:23:04;;;;;;;6.18;1.80;;;;;;;25.50;32.54;101176.38;4987495;28;20396;-75
2023/06/29 09:25:36;;;;;;;7.47;2.38;;;;;;;25.59;32.81;101177.53;4993253;28;20423;-78
2023/06/29 09:28:03;;;;;;;7.60;2.00;;;;;;;25.67;32.15;101173.50;4990519;28;20448;-76
2023/06/29 09:30:35;;;;;;;5.40;1.60;;;;;;;25.61;32.81;101164.50;4976726;28;20407;-77
2023/06/29 09:33:13;;;;;;;25.23;9.47;;;;;;;25.96;32.56;101155.00;4987911;28;20397;-77
2023/06/29 09:35:47;;;;;;;1.83;1.23;;;;;;;25.78;32.86;101175.22;4997663;28;20501;-77
2023/06/29 09:38:16;;;;;;;9.35;2.25;;;;;;;26.11;32.79;101165.16;5002036;28;20379;-77
2023/06/29 09:40:49;;;;;;;5.95;1.80;;;;;;;25.81;31.86;101166.56;4999307;28;20400;-75
2023/06/29 09:43:16;;;;;;;3.97;1.65;;;;;;;25.50;32.56;101158.19;5001818;28;20381;-78
2023/06/29 09:45:42;;;;;;;3.67;1.30;;;;;;;25.98;31.74;101152.84;4996856;28;20397;-75
2023/06/29 09:48:11;;;;;;;3.30;1.57;;;;;;;26.33;31.88;101160.38;4994866;28;20859;-77
2023/06/29 09:50:38;;;;;;;6.03;1.40;;;;;;;26.34;31.40;101150.31;4997203;28;20449;-76
2023/06/29 09:53:08;;;;;;;3.13;1.65;;;;;;;26.47;32.05;101149.84;4996665;28;20785;-78
2023/06/29 09:55:34;;;;;;;7.07;2.70;;;;;;;26.51;32.40;101145.50;4995701;28;20417;-76
2023/06/29 09:58:01;;;;;;;3.70;1.60;;;;;;;26.79;31.43;101161.66;4994965;28;20389;-75
2023/06/29 10:00:27;;;;;;;2.80;1.50;;;;;;;26.57;31.14;101159.91;4995181;28;20440;-77
2023/06/29 10:02:54;;;;;;;5.50;1.70;;;;;;;26.41;31.32;101155.50;4995036;28;20413;-77
2023/06/29 10:05:21;;;;;;;4.55;1.83;;;;;;;26.63;31.76;101139.88;4995205;28;20497;-75
2023/06/29 10:07:47;;;;;;;2.33;1.20;;;;;;;26.72;30.76;101153.72;4995035;28;20448;-74
2023/06/29 10:10:15;;;;;;;4.90;1.83;;;;;;;26.78;31.00;101132.81;4995568;28;20389;-76
2023/06/29 10:12:41;;;;;;;6.63;1.42;;;;;;;26.61;30.30;101152.88;4995167;28;20400;-76
2023/06/29 10:15:13;;;;;;;5.07;1.40;;;;;;;26.62;31.25;101143.66;4994568;28;20779;-75
2023/06/29 10:18:09;;;;;;;5.80;1.70;;;;;;;26.78;30.37;101125.47;4994988;28;20866;-78
2023/06/29 10:20:39;;;;;;;6.90;1.85;;;;;;;26.32;30.40;101153.28;4995001;28;20405;-76
2023/06/29 10:23:07;;;;;;;5.28;1.63;;;;;;;25.89;31.68;101140.81;4994842;28;20878;-76
2023/06/29 10:25:36;;;;;;;3.35;1.42;;;;;;;25.99;31.44;101145.53;4995636;28;20782;-76
2023/06/29 10:28:03;;;;;;;8.85;1.73;;;;;;;25.56;32.05;101150.91;4995435;28;20377;-77
2023/06/29 10:30:45;;;;;;;7.80;2.22;;;;;;;25.64;32.09;101131.44;4995915;28;20421;-76
2023/06/29 10:33:10;;;;;;;5.10;1.80;;;;;;;25.94;32.21;101138.97;4995422;28;20397;-77
2023/06/29 10:35:37;;;;;;;3.58;1.52;;;;;;;26.22;31.18;101136.94;4995436;28;20414;-77
2023/06/29 10:38:09;;;;;;;8.50;1.90;;;;;;;26.18;31.34;101126.88;4996012;28;20404;-76
2023/06/29 10:40:45;;;;;;;5.60;1.40;;;;;;;26.24;31.31;101145.66;4995815;28;20921;-75
2023/06/29 10:43:11;;;;;;;7.05;1.90;;;;;;;26.06;32.20;101138.75;4994737;28;20473;-76
2023/06/29 10:45:38;;;;;;;3.85;1.63;;;;;;;26.17;31.66;101127.97;4995417;28;20455;-75
2023/06/29 10:48:04;;;;;;;7.43;1.98;;;;;;;26.38;31.56;101139.72;4981623;28;21095;-75
2023/06/29 10:50:36;;;;;;;4.38;1.58;;;;;;;26.30;31.25;101139.13;4979963;28;20553;-75
2023/06/29 10:53:03;;;;;;;4.22;1.60;;;;;;;26.17;30.62;101142.34;4962417;28;20882;-77
2023/06/29 10:55:51;;;;;;;2.70;1.45;;;;;;;25.51;31.43;101123.72;4980061;28;20498;-75
2023/06/29 10:58:20;;;;;;;5.28;1.55;;;;;;;25.79;31.92;101127.19;4982337;28;20405;-75
2023/06/29 11:00:47;;;;;;;6.50;1.90;;;;;;;26.12;31.87;101123.31;4979128;28;20429;-75
2023/06/29 11:03:13;;;;;;;5.55;2.00;;;;;;;26.01;32.54;101136.00;4978444;28;20413;-75
2023/06/29 11:05:38;;;;;;;3.60;1.80;;;;;;;26.00;32.37;101137.13;4975920;28;20398;-74
2023/06/29 11:08:06;;;;;;;3.92;1.80;;;;;;;26.46;32.24;101131.88;4979279;28;20448;-75
2023/06/29 11:10:31;;;;;;;3.72;1.77;;;;;;;26.36;32.10;101120.94;4983964;28;20414;-74
2023/06/29 11:12:58;;;;;;;4.03;1.50;;;;;;;26.28;31.90;101132.34;4989805;28;20394;-75
2023/06/29 11:15:23;;;;;;;6.00;1.67;;;;;;;26.31;30.77;101124.47;4989313;28;20432;-74
2023/06/29 11:17:50;;;;;;;5.20;1.95;;;;;;;26.46;31.02;101112.03;4992509;28;20397;-75
2023/06/29 11:20:18;;;;;;;4.93;1.97;;;;;;;26.69;31.43;101119.75;4993505;28;20393;-76